sensor_id;sensor_type;location;lat;lon;timestamp;pressure;altitude;pressure_sealevel;temperature;humidity
17764;BME280;22245;52.832;13.816;2022-11-15T00:01:07;101407.88;;;6.80;83.67
17764;BME280;22245;52.832;13.816;2022-11-15T00:04:48;101417.63;;;6.80;83.70
17764;BME280;22245;52.832;13.816;2022-11-15T00:08:29;101416.94;;;6.76;83.60
17764;BME280;22245;52.832;13.816;2022-11-15T00:12:09;101414.47;;;6.73;83.91
17764;BME280;22245;52.832;13.816;2022-11-15T00:15:50;101402.28;;;6.71;83.66
17764;BME280;22245;52.832;13.816;2022-11-15T00:19:32;101406.72;;;6.70;83.82
17764;BME280;22245;52.832;13.816;2022-11-15T00:23:12;101401.44;;;6.70;83.52
17764;BME280;22245;52.832;13.816;2022-11-15T00:26:52;101393.59;;;6.69;83.81
17764;BME280;22245;52.832;13.816;2022-11-15T00:30:32;101380.53;;;6.65;84.00
17764;BME280;22245;52.832;13.816;2022-11-15T00:34:13;101374.56;;;6.62;84.20
17764;BME280;22245;52.832;13.816;2022-11-15T00:37:55;101378.16;;;6.61;83.93
17764;BME280;22245;52.832;13.816;2022-11-15T00:41:36;101367.75;;;6.58;83.77
17764;BME280;22245;52.832;13.816;2022-11-15T00:45:16;101359.03;;;6.56;83.65
17764;BME280;22245;52.832;13.816;2022-11-15T00:48:57;101355.44;;;6.57;83.49
17764;BME280;22245;52.832;13.816;2022-11-15T00:52:38;101366.03;;;6.57;83.24
17764;BME280;22245;52.832;13.816;2022-11-15T00:56:19;101355.72;;;6.52;83.45
17764;BME280;22245;52.832;13.816;2022-11-15T01:00:00;101352.41;;;6.48;83.54
17764;BME280;22245;52.832;13.816;2022-11-15T01:03:41;101345.50;;;6.46;83.52
17764;BME280;22245;52.832;13.816;2022-11-15T01:07:21;101347.44;;;6.42;83.44
17764;BME280;22245;52.832;13.816;2022-11-15T01:11:02;101345.75;;;6.41;83.36
17764;BME280;22245;52.832;13.816;2022-11-15T01:14:44;101342.34;;;6.39;83.03
17764;BME280;22245;52.832;13.816;2022-11-15T01:18:24;101341.56;;;6.37;83.29
17764;BME280;22245;52.832;13.816;2022-11-15T01:22:04;101335.69;;;6.32;83.36
17764;BME280;22245;52.832;13.816;2022-11-15T01:25:45;101329.47;;;6.33;83.29
17764;BME280;22245;52.832;13.816;2022-11-15T01:29:25;101325.22;;;6.30;83.32
17764;BME280;22245;52.832;13.816;2022-11-15T01:33:07;101323.53;;;6.29;83.10
17764;BME280;22245;52.832;13.816;2022-11-15T01:36:47;101320.19;;;6.26;83.26
17764;BME280;22245;52.832;13.816;2022-11-15T01:40:28;101313.25;;;6.23;83.19
17764;BME280;22245;52.832;13.816;2022-11-15T01:44:39;101317.91;;;6.19;83.07
17764;BME280;22245;52.832;13.816;2022-11-15T01:48:22;101304.94;;;6.15;83.11
17764;BME280;22245;52.832;13.816;2022-11-15T01:52:08;101295.28;;;6.14;83.07
17764;BME280;22245;52.832;13.816;2022-11-15T01:55:49;101303.34;;;6.12;82.94
17764;BME280;22245;52.832;13.816;2022-11-15T01:59:30;101284.81;;;6.12;83.00
17764;BME280;22245;52.832;13.816;2022-11-15T02:03:10;101292.25;;;6.05;82.96
17764;BME280;22245;52.832;13.816;2022-11-15T02:06:52;101289.78;;;6.02;83.10
17764;BME280;22245;52.832;13.816;2022-11-15T02:10:33;101293.41;;;6.00;83.08
17764;BME280;22245;52.832;13.816;2022-11-15T02:14:15;101285.66;;;5.97;83.19
17764;BME280;22245;52.832;13.816;2022-11-15T02:18:05;101291.28;;;5.90;83.28
17764;BME280;22245;52.832;13.816;2022-11-15T02:21:59;101280.91;;;5.87;83.40
17764;BME280;22245;52.832;13.816;2022-11-15T02:25:57;101279.19;;;5.86;83.29
17764;BME280;22245;52.832;13.816;2022-11-15T02:30:00;101274.09;;;5.83;82.91
17764;BME280;22245;52.832;13.816;2022-11-15T02:33:53;101272.56;;;5.79;83.25
17764;BME280;22245;52.832;13.816;2022-11-15T02:37:41;101262.91;;;5.78;83.44
17764;BME280;22245;52.832;13.816;2022-11-15T02:41:26;101264.88;;;5.74;83.19
17764;BME280;22245;52.832;13.816;2022-11-15T02:45:13;101254.47;;;5.71;83.35
17764;BME280;22245;52.832;13.816;2022-11-15T02:48:57;101259.06;;;5.68;83.60
17764;BME280;22245;52.832;13.816;2022-11-15T02:52:38;101260.19;;;5.63;83.51
17764;BME280;22245;52.832;13.816;2022-11-15T02:56:18;101254.91;;;5.63;83.39
17764;BME280;22245;52.832;13.816;2022-11-15T03:00:09;101263.78;;;5.62;83.60
17764;BME280;22245;52.832;13.816;2022-11-15T03:04:02;101262.06;;;5.61;83.32
17764;BME280;22245;52.832;13.816;2022-11-15T03:07:53;101258.59;;;5.61;83.44
17764;BME280;22245;52.832;13.816;2022-11-15T03:11:44;101255.06;;;5.60;83.15
17764;BME280;22245;52.832;13.816;2022-11-15T03:15:29;101247.16;;;5.60;83.10
17764;BME280;22245;52.832;13.816;2022-11-15T03:19:16;101246.38;;;5.58;82.92
17764;BME280;22245;52.832;13.816;2022-11-15T03:23:00;101247.44;;;5.56;82.96
17764;BME280;22245;52.832;13.816;2022-11-15T03:26:44;101249.19;;;5.55;83.11
17764;BME280;22245;52.832;13.816;2022-11-15T03:30:26;101231.81;;;5.51;83.00
17764;BME280;22245;52.832;13.816;2022-11-15T03:34:09;101227.41;;;5.52;82.60
17764;BME280;22245;52.832;13.816;2022-11-15T03:37:56;101226.72;;;5.48;82.60
17764;BME280;22245;52.832;13.816;2022-11-15T03:41:41;101228.59;;;5.46;82.68
17764;BME280;22245;52.832;13.816;2022-11-15T03:45:28;101234.13;;;5.41;82.97
17764;BME280;22245;52.832;13.816;2022-11-15T03:49:13;101235.16;;;5.39;83.20
17764;BME280;22245;52.832;13.816;2022-11-15T03:52:58;101230.88;;;5.36;83.03
17764;BME280;22245;52.832;13.816;2022-11-15T03:56:39;101237.09;;;5.35;83.08
17764;BME280;22245;52.832;13.816;2022-11-15T04:00:19;101230.13;;;5.34;83.03
17764;BME280;22245;52.832;13.816;2022-11-15T04:03:59;101228.34;;;5.34;82.76
17764;BME280;22245;52.832;13.816;2022-11-15T04:07:40;101230.03;;;5.35;82.90
17764;BME280;22245;52.832;13.816;2022-11-15T04:11:22;101230.13;;;5.34;82.77
17764;BME280;22245;52.832;13.816;2022-11-15T04:15:05;101228.50;;;5.31;82.80
17764;BME280;22245;52.832;13.816;2022-11-15T04:18:48;101223.38;;;5.28;83.20
17764;BME280;22245;52.832;13.816;2022-11-15T04:22:52;101214.78;;;5.25;83.19
17764;BME280;22245;52.832;13.816;2022-11-15T04:26:51;101220.06;;;5.25;83.21
17764;BME280;22245;52.832;13.816;2022-11-15T04:30:31;101210.50;;;5.22;83.32
17764;BME280;22245;52.832;13.816;2022-11-15T04:34:11;101210.50;;;5.22;83.20
17764;BME280;22245;52.832;13.816;2022-11-15T04:37:52;101221.06;;;5.22;83.02
17764;BME280;22245;52.832;13.816;2022-11-15T04:41:32;101210.63;;;5.20;82.82
17764;BME280;22245;52.832;13.816;2022-11-15T04:45:14;101208.16;;;5.17;83.10
17764;BME280;22245;52.832;13.816;2022-11-15T04:48:55;101206.50;;;5.15;83.10
17764;BME280;22245;52.832;13.816;2022-11-15T04:52:37;101208.22;;;5.16;83.30
17764;BME280;22245;52.832;13.816;2022-11-15T04:56:18;101208.38;;;5.13;83.47
17764;BME280;22245;52.832;13.816;2022-11-15T04:59:59;101212.72;;;5.14;83.35
17764;BME280;22245;52.832;13.816;2022-11-15T05:03:41;101211.78;;;5.15;83.29
17764;BME280;22245;52.832;13.816;2022-11-15T05:07:39;101206.69;;;5.12;83.48
17764;BME280;22245;52.832;13.816;2022-11-15T05:11:19;101204.97;;;5.11;83.73
17764;BME280;22245;52.832;13.816;2022-11-15T05:15:00;101211.03;;;5.13;83.87
17764;BME280;22245;52.832;13.816;2022-11-15T05:18:42;101211.03;;;5.13;84.06
17764;BME280;22245;52.832;13.816;2022-11-15T05:22:22;101204.81;;;5.14;83.43
17764;BME280;22245;52.832;13.816;2022-11-15T05:26:05;101196.13;;;5.12;83.48
17764;BME280;22245;52.832;13.816;2022-11-15T05:29:47;101201.41;;;5.12;83.68
17764;BME280;22245;52.832;13.816;2022-11-15T05:33:28;101210.19;;;5.12;83.54
17764;BME280;22245;52.832;13.816;2022-11-15T05:37:10;101211.97;;;5.12;83.59
17764;BME280;22245;52.832;13.816;2022-11-15T05:40:51;101211.38;;;5.06;83.69
17764;BME280;22245;52.832;13.816;2022-11-15T05:44:32;101211.38;;;5.06;83.73
17764;BME280;22245;52.832;13.816;2022-11-15T05:48:14;101211.38;;;5.06;83.84
17764;BME280;22245;52.832;13.816;2022-11-15T05:51:54;101207.03;;;5.05;84.00
17764;BME280;22245;52.832;13.816;2022-11-15T05:55:37;101203.44;;;5.06;84.04
17764;BME280;22245;52.832;13.816;2022-11-15T05:59:18;101201.66;;;5.07;83.84
17764;BME280;22245;52.832;13.816;2022-11-15T06:02:59;101204.22;;;5.09;83.67
17764;BME280;22245;52.832;13.816;2022-11-15T06:06:40;101216.66;;;5.06;83.54
17764;BME280;22245;52.832;13.816;2022-11-15T06:10:20;101215.78;;;5.06;83.77
17764;BME280;22245;52.832;13.816;2022-11-15T06:14:03;101213.31;;;5.03;83.75
17764;BME280;22245;52.832;13.816;2022-11-15T06:17:44;101220.41;;;5.02;83.52
17764;BME280;22245;52.832;13.816;2022-11-15T06:21:24;101229.59;;;4.95;83.71
17764;BME280;22245;52.832;13.816;2022-11-15T06:25:07;101220.72;;;4.96;84.04
17764;BME280;22245;52.832;13.816;2022-11-15T06:28:47;101222.50;;;4.96;83.91
17764;BME280;22245;52.832;13.816;2022-11-15T06:32:30;101220.81;;;4.95;84.00
17764;BME280;22245;52.832;13.816;2022-11-15T06:36:11;101214.75;;;4.92;nan
17764;BME280;22245;52.832;13.816;2022-11-15T06:39:56;101219.16;;;4.92;84.22
17764;BME280;22245;52.832;13.816;2022-11-15T06:43:37;101221.72;;;4.93;84.18
17764;BME280;22245;52.832;13.816;2022-11-15T06:47:18;101225.25;;;4.94;84.39
17764;BME280;22245;52.832;13.816;2022-11-15T06:51:01;101243.03;;;4.90;84.40
17764;BME280;22245;52.832;13.816;2022-11-15T06:54:42;101238.56;;;4.91;84.42
17764;BME280;22245;52.832;13.816;2022-11-15T06:58:22;101243.09;;;4.89;84.33
17764;BME280;22245;52.832;13.816;2022-11-15T07:02:03;101248.19;;;4.92;84.08
17764;BME280;22245;52.832;13.816;2022-11-15T07:05:50;101248.13;;;4.93;84.24
17764;BME280;22245;52.832;13.816;2022-11-15T07:09:32;101243.72;;;4.94;84.35
17764;BME280;22245;52.832;13.816;2022-11-15T07:13:13;101245.56;;;4.92;84.22
17764;BME280;22245;52.832;13.816;2022-11-15T07:16:53;101242.84;;;4.93;84.67
17764;BME280;22245;52.832;13.816;2022-11-15T07:20:33;101246.34;;;4.94;84.01
17764;BME280;22245;52.832;13.816;2022-11-15T07:24:14;101250.72;;;4.95;84.23
17764;BME280;22245;52.832;13.816;2022-11-15T07:27:57;101245.44;;;4.95;84.16
17764;BME280;22245;52.832;13.816;2022-11-15T07:31:39;101258.34;;;5.00;84.51
17764;BME280;22245;52.832;13.816;2022-11-15T07:35:20;101253.06;;;5.00;84.28
17764;BME280;22245;52.832;13.816;2022-11-15T07:39:02;101259.22;;;5.00;84.02
17764;BME280;22245;52.832;13.816;2022-11-15T07:42:42;101259.22;;;5.00;83.81
17764;BME280;22245;52.832;13.816;2022-11-15T07:46:38;101254.72;;;5.02;83.89
17764;BME280;22245;52.832;13.816;2022-11-15T07:50:18;101258.28;;;5.01;84.10
17764;BME280;22245;52.832;13.816;2022-11-15T07:53:59;101256.50;;;5.02;84.24
17764;BME280;22245;52.832;13.816;2022-11-15T07:57:40;101255.66;;;5.01;84.37
17764;BME280;22245;52.832;13.816;2022-11-15T08:01:21;101244.16;;;5.02;84.41
17764;BME280;22245;52.832;13.816;2022-11-15T08:05:04;101245.94;;;5.02;84.50
17764;BME280;22245;52.832;13.816;2022-11-15T08:08:50;101243.13;;;5.05;84.50
17764;BME280;22245;52.832;13.816;2022-11-15T08:12:31;101230.78;;;5.05;84.96
17764;BME280;22245;52.832;13.816;2022-11-15T08:16:12;101227.03;;;5.10;84.71
17764;BME280;22245;52.832;13.816;2022-11-15T08:19:52;101225.00;;;5.15;84.72
17764;BME280;22245;52.832;13.816;2022-11-15T08:23:34;101222.19;;;5.18;84.78
17764;BME280;22245;52.832;13.816;2022-11-15T08:27:15;101231.81;;;5.19;84.92
17764;BME280;22245;52.832;13.816;2022-11-15T08:30:56;101230.81;;;5.21;84.85
17764;BME280;22245;52.832;13.816;2022-11-15T08:34:37;101228.94;;;5.24;84.46
17764;BME280;22245;52.832;13.816;2022-11-15T08:38:17;101228.75;;;5.27;84.34
17764;BME280;22245;52.832;13.816;2022-11-15T08:41:59;101227.72;;;5.29;84.26
17764;BME280;22245;52.832;13.816;2022-11-15T08:45:41;101225.88;;;5.31;84.65
17764;BME280;22245;52.832;13.816;2022-11-15T08:49:22;101221.34;;;5.33;84.98
17764;BME280;22245;52.832;13.816;2022-11-15T08:53:05;101214.03;;;5.39;85.19
17764;BME280;22245;52.832;13.816;2022-11-15T08:56:46;101216.16;;;5.48;84.92
17764;BME280;22245;52.832;13.816;2022-11-15T09:00:29;101210.50;;;5.54;85.10
17764;BME280;22245;52.832;13.816;2022-11-15T09:04:10;101215.63;;;5.57;84.92
17764;BME280;22245;52.832;13.816;2022-11-15T09:07:52;101227.88;;;5.58;85.10
17764;BME280;22245;52.832;13.816;2022-11-15T09:11:33;101226.78;;;5.62;85.06
17764;BME280;22245;52.832;13.816;2022-11-15T09:15:14;101225.66;;;5.67;85.10
17764;BME280;22245;52.832;13.816;2022-11-15T09:18:57;101226.28;;;5.72;85.10
17764;BME280;22245;52.832;13.816;2022-11-15T09:22:38;101218.94;;;5.77;85.28
17764;BME280;22245;52.832;13.816;2022-11-15T09:26:21;101220.63;;;5.78;84.80
17764;BME280;22245;52.832;13.816;2022-11-15T09:30:03;101223.84;;;5.83;84.93
17764;BME280;22245;52.832;13.816;2022-11-15T09:33:44;101227.50;;;5.80;84.86
17764;BME280;22245;52.832;13.816;2022-11-15T09:37:26;101241.16;;;5.89;85.00
17764;BME280;22245;52.832;13.816;2022-11-15T09:45:30;101233.81;;;5.94;84.81
17764;BME280;22245;52.832;13.816;2022-11-15T09:49:32;101235.25;;;6.00;84.43
17764;BME280;22245;52.832;13.816;2022-11-15T09:53:24;101220.16;;;6.02;84.37
17764;BME280;22245;52.832;13.816;2022-11-15T09:57:12;101226.22;;;6.04;84.37
17764;BME280;22245;52.832;13.816;2022-11-15T10:00:38;101217.84;;;6.12;84.78
17764;BME280;22245;52.832;13.816;2022-11-15T10:04:07;101217.41;;;6.19;84.74
17764;BME280;22245;52.832;13.816;2022-11-15T10:07:44;101224.00;;;6.27;84.42
17764;BME280;22245;52.832;13.816;2022-11-15T10:11:10;101212.50;;;6.28;84.47
17764;BME280;22245;52.832;13.816;2022-11-15T10:15:02;101215.81;;;6.31;84.17
17764;BME280;22245;52.832;13.816;2022-11-15T10:18:29;101198.13;;;6.32;84.27
17764;BME280;22245;52.832;13.816;2022-11-15T10:22:03;101190.88;;;6.35;84.55
17764;BME280;22245;52.832;13.816;2022-11-15T10:25:30;101189.63;;;6.41;84.44
17764;BME280;22245;52.832;13.816;2022-11-15T10:28:55;101178.91;;;6.44;84.54
17764;BME280;22245;52.832;13.816;2022-11-15T10:32:24;101179.47;;;6.49;84.30
17764;BME280;22245;52.832;13.816;2022-11-15T10:36:16;101173.97;;;6.53;84.10
17764;BME280;22245;52.832;13.816;2022-11-15T10:39:42;101173.88;;;6.54;84.01
17764;BME280;22245;52.832;13.816;2022-11-15T10:43:15;101184.25;;;6.57;84.06
17764;BME280;22245;52.832;13.816;2022-11-15T10:46:39;101184.56;;;6.53;84.02
17764;BME280;22245;52.832;13.816;2022-11-15T10:50:26;101181.72;;;6.56;83.81
17764;BME280;22245;52.832;13.816;2022-11-15T10:53:51;101173.59;;;6.59;83.86
17764;BME280;22245;52.832;13.816;2022-11-15T10:57:16;101159.16;;;6.64;83.73
17764;BME280;22245;52.832;13.816;2022-11-15T11:00:39;101156.38;;;6.66;83.88
17764;BME280;22245;52.832;13.816;2022-11-15T11:04:06;101153.53;;;6.69;83.57
17764;BME280;22245;52.832;13.816;2022-11-15T11:07:31;101140.97;;;6.73;83.79
17764;BME280;22245;52.832;13.816;2022-11-15T11:10:56;101139.72;;;6.78;83.42
17764;BME280;22245;52.832;13.816;2022-11-15T11:14:25;101144.94;;;6.80;83.81
17764;BME280;22245;52.832;13.816;2022-11-15T11:18:00;101143.78;;;6.84;83.76
17764;BME280;22245;52.832;13.816;2022-11-15T11:21:38;101134.63;;;6.90;83.55
17764;BME280;22245;52.832;13.816;2022-11-15T11:25:21;101131.78;;;6.93;83.38
17764;BME280;22245;52.832;13.816;2022-11-15T11:28:50;101130.84;;;6.94;83.59
17764;BME280;22245;52.832;13.816;2022-11-15T11:32:33;101128.19;;;6.94;83.70
17764;BME280;22245;52.832;13.816;2022-11-15T11:36:07;101124.59;;;6.95;83.58
17764;BME280;22245;52.832;13.816;2022-11-15T11:39:40;101128.94;;;6.96;83.25
17764;BME280;22245;52.832;13.816;2022-11-15T11:43:18;101125.06;;;7.02;83.80
17764;BME280;22245;52.832;13.816;2022-11-15T11:46:49;101120.38;;;7.05;83.80
17764;BME280;22245;52.832;13.816;2022-11-15T11:50:37;101126.44;;;7.07;84.01
17764;BME280;22245;52.832;13.816;2022-11-15T11:54:05;101119.34;;;7.08;83.31
17764;BME280;22245;52.832;13.816;2022-11-15T11:57:39;101117.53;;;7.08;83.45
17764;BME280;22245;52.832;13.816;2022-11-15T12:01:36;101124.53;;;7.09;83.24
17764;BME280;22245;52.832;13.816;2022-11-15T12:05:08;101110.47;;;7.09;83.16
17764;BME280;22245;52.832;13.816;2022-11-15T12:08:40;101106.53;;;7.15;83.17
17764;BME280;22245;52.832;13.816;2022-11-15T12:12:12;101100.28;;;7.16;82.55
17764;BME280;22245;52.832;13.816;2022-11-15T12:15:43;101103.69;;;7.18;82.67
17764;BME280;22245;52.832;13.816;2022-11-15T12:19:08;101099.34;;;7.17;82.69
17764;BME280;22245;52.832;13.816;2022-11-15T12:22:38;101097.28;;;7.22;82.94
17764;BME280;22245;52.832;13.816;2022-11-15T12:26:03;101085.81;;;7.21;82.13
17764;BME280;22245;52.832;13.816;2022-11-15T12:29:29;101092.72;;;7.24;82.06
17764;BME280;22245;52.832;13.816;2022-11-15T12:32:57;101093.34;;;7.28;82.00
17764;BME280;22245;52.832;13.816;2022-11-15T12:36:34;101089.00;;;7.27;82.38
17764;BME280;22245;52.832;13.816;2022-11-15T12:40:17;101091.44;;;7.30;82.30
17764;BME280;22245;52.832;13.816;2022-11-15T12:43:41;101090.63;;;7.29;82.17
17764;BME280;22245;52.832;13.816;2022-11-15T12:47:22;101087.00;;;7.30;82.64
17764;BME280;22245;52.832;13.816;2022-11-15T12:50:54;101069.41;;;7.29;82.05
17764;BME280;22245;52.832;13.816;2022-11-15T12:58:28;101066.84;;;7.28;82.03
17764;BME280;22245;52.832;13.816;2022-11-15T13:01:58;101063.16;;;7.30;82.70
17764;BME280;22245;52.832;13.816;2022-11-15T13:13:42;101057.66;;;7.33;83.00
17764;BME280;22245;52.832;13.816;2022-11-15T13:17:23;101060.31;;;7.33;83.37
17764;BME280;22245;52.832;13.816;2022-11-15T13:20:45;101062.75;;;7.36;83.54
17764;BME280;22245;52.832;13.816;2022-11-15T13:24:13;101063.50;;;7.38;84.07
17764;BME280;22245;52.832;13.816;2022-11-15T13:27:34;101056.28;;;7.41;83.82
17764;BME280;22245;52.832;13.816;2022-11-15T13:30:59;101058.19;;;7.38;83.91
17764;BME280;22245;52.832;13.816;2022-11-15T13:34:26;101063.50;;;7.38;84.33
17764;BME280;22245;52.832;13.816;2022-11-15T13:38:19;101068.81;;;7.38;84.25
17764;BME280;22245;52.832;13.816;2022-11-15T13:41:47;101065.19;;;7.39;84.63
17764;BME280;22245;52.832;13.816;2022-11-15T13:45:13;101069.34;;;7.44;85.11
17764;BME280;22245;52.832;13.816;2022-11-15T13:48:37;101065.94;;;7.42;84.66
17764;BME280;22245;52.832;13.816;2022-11-15T13:52:00;101055.34;;;7.42;85.18
17764;BME280;22245;52.832;13.816;2022-11-15T13:55:23;101072.72;;;7.46;85.39
17764;BME280;22245;52.832;13.816;2022-11-15T13:58:46;101062.88;;;7.48;85.04
17764;BME280;22245;52.832;13.816;2022-11-15T14:02:12;101066.19;;;7.51;85.20
17764;BME280;22245;52.832;13.816;2022-11-15T14:05:35;101071.16;;;7.56;84.99
17764;BME280;22245;52.832;13.816;2022-11-15T14:09:03;101075.72;;;7.54;85.32
17764;BME280;22245;52.832;13.816;2022-11-15T14:12:29;101073.06;;;7.54;85.69
17764;BME280;22245;52.832;13.816;2022-11-15T14:15:52;101052.59;;;7.56;85.70
17764;BME280;22245;52.832;13.816;2022-11-15T14:19:35;101048.91;;;7.59;86.02
17764;BME280;22245;52.832;13.816;2022-11-15T14:22:59;101041.63;;;7.62;85.71
17764;BME280;22245;52.832;13.816;2022-11-15T14:26:29;101043.19;;;7.65;85.64
17764;BME280;22245;52.832;13.816;2022-11-15T14:29:51;101045.53;;;7.70;86.06
17764;BME280;22245;52.832;13.816;2022-11-15T14:33:22;101046.38;;;7.70;85.75
17764;BME280;22245;52.832;13.816;2022-11-15T14:36:44;101045.41;;;7.71;85.75
17764;BME280;22245;52.832;13.816;2022-11-15T14:40:11;101035.66;;;7.72;86.27
17764;BME280;22245;52.832;13.816;2022-11-15T14:43:33;101029.41;;;7.73;86.32
17764;BME280;22245;52.832;13.816;2022-11-15T14:46:55;101017.72;;;7.75;86.51
17764;BME280;22245;52.832;13.816;2022-11-15T14:50:19;101014.13;;;7.76;86.52
17764;BME280;22245;52.832;13.816;2022-11-15T14:53:43;101013.06;;;7.79;86.46
17764;BME280;22245;52.832;13.816;2022-11-15T14:57:06;101018.28;;;7.80;86.83
17764;BME280;22245;52.832;13.816;2022-11-15T15:00:28;101026.13;;;7.82;87.18
17764;BME280;22245;52.832;13.816;2022-11-15T15:03:54;101025.16;;;7.83;87.03
17764;BME280;22245;52.832;13.816;2022-11-15T15:07:18;101012.66;;;7.85;87.18
17764;BME280;22245;52.832;13.816;2022-11-15T15:10:42;101012.66;;;7.85;87.50
17764;BME280;22245;52.832;13.816;2022-11-15T15:14:05;101023.03;;;7.88;87.29
17764;BME280;22245;52.832;13.816;2022-11-15T15:17:27;101023.03;;;7.88;87.85
17764;BME280;22245;52.832;13.816;2022-11-15T15:20:54;101008.94;;;7.88;87.82
17764;BME280;22245;52.832;13.816;2022-11-15T15:24:17;101010.72;;;7.87;87.34
17764;BME280;22245;52.832;13.816;2022-11-15T15:27:38;101014.13;;;7.89;87.52
17764;BME280;22245;52.832;13.816;2022-11-15T15:31:02;100997.25;;;7.90;87.79
17764;BME280;22245;52.832;13.816;2022-11-15T15:34:23;101003.53;;;7.89;87.59
17764;BME280;22245;52.832;13.816;2022-11-15T15:37:58;101001.81;;;7.88;87.94
17764;BME280;22245;52.832;13.816;2022-11-15T15:41:23;101009.78;;;7.88;88.26
17764;BME280;22245;52.832;13.816;2022-11-15T15:44:44;101007.88;;;7.90;88.03
17764;BME280;22245;52.832;13.816;2022-11-15T15:48:10;100998.22;;;7.89;88.29
17764;BME280;22245;52.832;13.816;2022-11-15T15:51:40;100994.81;;;7.87;88.54
17764;BME280;22245;52.832;13.816;2022-11-15T15:55:29;100990.47;;;7.86;88.48
17764;BME280;22245;52.832;13.816;2022-11-15T15:58:51;100992.91;;;7.89;88.16
17764;BME280;22245;52.832;13.816;2022-11-15T16:02:17;100991.88;;;7.92;88.38
17764;BME280;22245;52.832;13.816;2022-11-15T16:05:40;100996.09;;;7.94;87.89
17764;BME280;22245;52.832;13.816;2022-11-15T16:09:08;100987.06;;;7.97;88.07
17764;BME280;22245;52.832;13.816;2022-11-15T16:12:39;100995.78;;;7.99;87.86
17764;BME280;22245;52.832;13.816;2022-11-15T16:16:07;100991.34;;;8.00;87.48
17764;BME280;22245;52.832;13.816;2022-11-15T16:19:37;100997.38;;;8.02;87.49
17764;BME280;22245;52.832;13.816;2022-11-15T16:23:01;100990.25;;;8.02;87.41
17764;BME280;22245;52.832;13.816;2022-11-15T16:26:36;100981.47;;;8.02;87.50
17764;BME280;22245;52.832;13.816;2022-11-15T16:31:15;100983.16;;;8.03;87.12
17764;BME280;22245;52.832;13.816;2022-11-15T16:34:56;100979.53;;;8.04;87.24
17764;BME280;22245;52.832;13.816;2022-11-15T16:38:25;100981.47;;;8.02;87.05
17764;BME280;22245;52.832;13.816;2022-11-15T16:42:40;100975.50;;;7.98;86.73
17764;BME280;22245;52.832;13.816;2022-11-15T16:46:27;100973.72;;;7.99;86.95
17764;BME280;22245;52.832;13.816;2022-11-15T16:49:56;100975.50;;;7.98;86.74
17764;BME280;22245;52.832;13.816;2022-11-15T16:53:35;100981.03;;;7.95;86.83
17764;BME280;22245;52.832;13.816;2022-11-15T16:57:15;100970.53;;;7.93;86.59
17764;BME280;22245;52.832;13.816;2022-11-15T17:00:39;100975.00;;;7.93;86.34
17764;BME280;22245;52.832;13.816;2022-11-15T17:05:02;100974.34;;;7.89;86.17
17764;BME280;22245;52.832;13.816;2022-11-15T17:08:33;100973.59;;;7.87;86.11
17764;BME280;22245;52.832;13.816;2022-11-15T17:11:56;100970.97;;;7.87;86.21
17764;BME280;22245;52.832;13.816;2022-11-15T17:15:20;100964.91;;;7.85;86.25
17764;BME280;22245;52.832;13.816;2022-11-15T17:18:43;100962.38;;;7.84;86.06
17764;BME280;22245;52.832;13.816;2022-11-15T17:22:04;100959.09;;;7.80;86.35
17764;BME280;22245;52.832;13.816;2022-11-15T17:25:27;100973.44;;;7.77;86.38
17764;BME280;22245;52.832;13.816;2022-11-15T17:28:53;100963.66;;;7.78;85.88
17764;BME280;22245;52.832;13.816;2022-11-15T17:32:15;100955.06;;;7.74;85.51
17764;BME280;22245;52.832;13.816;2022-11-15T17:35:36;100957.94;;;7.71;85.72
17764;BME280;22245;52.832;13.816;2022-11-15T17:38:58;100958.03;;;7.70;85.65
17764;BME280;22245;52.832;13.816;2022-11-15T17:42:21;100957.41;;;7.66;85.85
17764;BME280;22245;52.832;13.816;2022-11-15T17:45:42;100951.16;;;7.67;85.98
17764;BME280;22245;52.832;13.816;2022-11-15T17:49:04;100946.28;;;7.61;86.70
17764;BME280;22245;52.832;13.816;2022-11-15T17:52:26;100940.13;;;7.60;86.59
17764;BME280;22245;52.832;13.816;2022-11-15T17:55:47;100942.78;;;7.60;87.08
17764;BME280;22245;52.832;13.816;2022-11-15T17:59:10;100947.13;;;7.61;86.84
17764;BME280;22245;52.832;13.816;2022-11-15T18:02:39;100943.53;;;7.62;86.81
17764;BME280;22245;52.832;13.816;2022-11-15T18:06:01;100943.53;;;7.62;86.59
17764;BME280;22245;52.832;13.816;2022-11-15T18:09:23;100941.84;;;7.61;86.77
17764;BME280;22245;52.832;13.816;2022-11-15T18:12:45;100936.75;;;7.58;86.68
17764;BME280;22245;52.832;13.816;2022-11-15T18:16:10;100933.16;;;7.59;86.76
17764;BME280;22245;52.832;13.816;2022-11-15T18:19:32;100922.53;;;7.59;86.60
17764;BME280;22245;52.832;13.816;2022-11-15T18:22:53;100918.06;;;7.60;85.99
17764;BME280;22245;52.832;13.816;2022-11-15T18:26:16;100914.78;;;7.56;86.19
17764;BME280;22245;52.832;13.816;2022-11-15T18:29:42;100912.34;;;7.53;85.92
17764;BME280;22245;52.832;13.816;2022-11-15T18:33:05;100908.94;;;7.51;86.09
17764;BME280;22245;52.832;13.816;2022-11-15T18:36:28;100899.44;;;7.48;86.43
17764;BME280;22245;52.832;13.816;2022-11-15T18:39:50;100905.56;;;7.49;85.79
17764;BME280;22245;52.832;13.816;2022-11-15T18:43:13;100905.56;;;7.49;85.97
17764;BME280;22245;52.832;13.816;2022-11-15T18:46:35;100905.78;;;7.46;86.34
17764;BME280;22245;52.832;13.816;2022-11-15T18:50:00;100902.28;;;7.45;86.58
17764;BME280;22245;52.832;13.816;2022-11-15T18:53:22;100906.75;;;7.45;86.29
17764;BME280;22245;52.832;13.816;2022-11-15T18:56:44;100911.28;;;7.43;86.12
17764;BME280;22245;52.832;13.816;2022-11-15T19:00:07;100906.00;;;7.43;86.54
17764;BME280;22245;52.832;13.816;2022-11-15T19:03:33;100902.59;;;7.41;86.15
17764;BME280;22245;52.832;13.816;2022-11-15T19:06:57;100908.88;;;7.39;86.28